Terminal Aerodrome Forecast
Issued by NWS Omaha/Valley, NE

Home | Current Version | Previous Version | Graphics & Text | Print | Product List | Glossary Off
Versions: 1 2 3 4 5 6 7 8 9 10 11 12 13 14 15

000
FTUS43 KOAX 221922 AAA
TAFOFK
TAF AMD
KOFK 221922Z 2219/2318 19016G23KT P6SM BKN250
     FM222300 20010KT P6SM BKN200
     FM230300 23008KT P6SM FEW250
     FM230600 30007KT P6SM FEW250
     FM231200 29005KT P6SM FEW250=

USA.gov is the U.S. government's official web portal to all federal, state and local government web resources and services.